Norwegian Breakaway — C6ZJ3 — position and weather

sailwx.info

Track history (hours):
 
Tides and Currents Weather Stations Pressure Air Temp Water Temp Dewpoint Dewpoint Depression Visibility Wind Speed Wind Dir Waves Ship Positions

Norwegian Breakaway

Last reported at 2019-Jul-14 22:17 UTC. Time now 2019-Jul-17 00:49 UTC.
Position N 25°32' W 079°50'.

Length 325 m; draft 8.6 m.

Type: Passenger vessel. MMSI: 311050800.

Date/timePositionNaut miles runAvg speedWind from/ knotsBaromVisibWave heightAir tempDewpointWater temp
2019-Jul-14 22:17N 25°32' W 079°50'516.9
2019-Jul-14 22:00N 25°36' W 079°53'817.0
2019-Jul-14 21:30N 25°42' W 079°59'713.3
2019-Jul-14 21:01N 25°46' W 080°05'5 9.1
2019-Jul-14 20:30N 25°47' W 080°10'0 0.7
2019-Jul-14 19:58N 25°47' W 080°10'0 0.0
2019-Jul-14 19:28N 25°47' W 080°10'0 0.0
2019-Jul-14 18:57N 25°47' W 080°10'0 0.0
2019-Jul-14 18:25N 25°47' W 080°10'0 0.0
2019-Jul-14 17:58N 25°47' W 080°10'0 0.0
2019-Jul-14 17:25N 25°47' W 080°10'0 0.0
2019-Jul-14 16:58N 25°47' W 080°10'0 0.0
2019-Jul-14 16:22N 25°47' W 080°10'0 0.0
2019-Jul-14 15:58N 25°47' W 080°10'0 0.0
2019-Jul-14 15:28N 25°47' W 080°10'0 0.0
2019-Jul-14 14:22N 25°47' W 080°10'0 0.0
2019-Jul-14 13:55N 25°47' W 080°10'0 0.0
2019-Jul-14 13:28N 25°47' W 080°10'0 0.0
2019-Jul-14 12:58N 25°47' W 080°10'0 0.0
2019-Jul-14 12:25N 25°47' W 080°10'0 0.0
2019-Jul-14 11:58N 25°47' W 080°10'0 0.0
2019-Jul-14 11:28N 25°47' W 080°10'0 0.0
2019-Jul-14 10:58N 25°47' W 080°10'0 0.1
2019-Jul-14 10:30N 25°47' W 080°10'0 0.2
2019-Jul-14 10:00N 25°47' W 080°11'4 8.6
2019-Jul-14 09:30N 25°46' W 080°06'5 9.5
2019-Jul-14 09:00N 25°47' W 080°01'4 8.7
2019-Jul-14 08:30N 25°45' W 079°57'510.6
2019-Jul-14 08:00N 25°40' W 079°56'611.6
2019-Jul-14 07:30N 25°34' W 079°56'612.1
2019-Jul-14 07:00N 25°28' W 079°56'612.7
2019-Jul-14 06:30N 25°22' W 079°57'713.2
2019-Jul-14 06:00N 25°16' W 079°59'47815.3
2019-Jul-12 22:50N 20°32' W 086°58'2 5.4
2019-Jul-12 22:31N 20°31' W 086°57'0 0.0
2019-Jul-12 22:00N 20°31' W 086°57'0 0.0
2019-Jul-12 21:31N 20°31' W 086°57'0 0.0
2019-Jul-12 21:00N 20°31' W 086°57'0 0.0
2019-Jul-12 13:34N 20°31' W 086°57'0 0.0
2019-Jul-12 12:35N 20°31' W 086°57'5 5.1
2019-Jul-12 11:34N 20°28' W 087°02'  
2019-Jul-07 22:19N 25°36' W 079°54'517.8
2019-Jul-07 22:01N 25°40' W 079°58'815.7
2019-Jul-07 21:31N 25°46' W 080°04'5 9.9
2019-Jul-07 21:01N 25°47' W 080°10'1 1.0
2019-Jul-07 20:28N 25°47' W 080°10'0 0.0
2019-Jul-07 19:58N 25°47' W 080°10'0 0.0
2019-Jul-07 19:28N 25°47' W 080°10'0 0.0
2019-Jul-07 18:58N 25°47' W 080°10'0 0.0
2019-Jul-07 18:28N 25°47' W 080°10'0 0.0
2019-Jul-07 17:58N 25°47' W 080°10'0 0.0
2019-Jul-07 17:28N 25°47' W 080°10'0 0.0
2019-Jul-07 16:58N 25°47' W 080°10'0 0.0
2019-Jul-07 16:28N 25°47' W 080°10'0 0.0
2019-Jul-07 15:58N 25°47' W 080°10'0 0.0
2019-Jul-07 15:28N 25°47' W 080°10'0 0.0
2019-Jul-07 14:55N 25°47' W 080°10'0 0.0
2019-Jul-07 14:28N 25°47' W 080°10'0 0.0
2019-Jul-07 13:58N 25°47' W 080°10'0 0.0
2019-Jul-07 13:25N 25°47' W 080°10'0 0.0
2019-Jul-07 12:58N 25°47' W 080°10'0 0.0
2019-Jul-07 12:28N 25°47' W 080°10'0 0.0
2019-Jul-07 11:58N 25°47' W 080°10'0 0.0
2019-Jul-07 11:28N 25°47' W 080°10'0 0.0
2019-Jul-07 10:58N 25°47' W 080°10'0 0.0
2019-Jul-07 10:30N 25°47' W 080°10'0 0.8
2019-Jul-07 10:00N 25°47' W 080°11'4 7.3
2019-Jul-07 09:30N 25°45' W 080°07'5 9.9
2019-Jul-07 09:00N 25°47' W 080°02'4 8.7
2019-Jul-07 08:30N 25°45' W 079°57'611.6
2019-Jul-07 08:00N 25°39' W 079°56'612.7
2019-Jul-07 07:30N 25°33' W 079°56'612.8
2019-Jul-07 07:00N 25°27' W 079°56'612.7
2019-Jul-07 06:30N 25°20' W 079°57'712.7
2019-Jul-07 05:58N 25°14' W 079°60'47515.2
2019-Jul-05 22:36N 20°34' W 086°57'110.7
2019-Jul-05 22:30N 20°33' W 086°57'2 3.6
2019-Jul-05 21:59N 20°31' W 086°57'0 0.0
2019-Jul-05 21:29N 20°31' W 086°57'0 0.0
2019-Jul-05 20:59N 20°31' W 086°57'0 0.0
2019-Jul-05 20:29N 20°31' W 086°57'0 0.0
2019-Jul-05 19:59N 20°31' W 086°57'0 0.0
2019-Jul-05 19:29N 20°31' W 086°57'0 0.0
2019-Jul-05 18:59N 20°31' W 086°57'0 0.0
2019-Jul-05 18:29N 20°31' W 086°57'0 0.0
2019-Jul-05 17:59N 20°31' W 086°57'0 0.0
2019-Jul-05 17:29N 20°31' W 086°57'0 0.0
2019-Jul-05 16:59N 20°31' W 086°57'0 0.0
2019-Jul-05 16:26N 20°31' W 086°57'0 0.0
2019-Jul-05 15:59N 20°31' W 086°57'0 0.0
2019-Jul-05 15:29N 20°31' W 086°57'0 0.0
2019-Jul-05 14:59N 20°31' W 086°57'0 0.0
2019-Jul-05 14:29N 20°31' W 086°57'0 0.0
2019-Jul-05 13:59N 20°31' W 086°57'0 0.0
2019-Jul-05 13:29N 20°31' W 086°57'0 0.0
2019-Jul-05 12:59N 20°31' W 086°57'0 0.0
2019-Jul-05 12:30N 20°31' W 086°57'1 1.5
2019-Jul-05 12:00N 20°30' W 086°58'4 7.8
2019-Jul-05 11:30N 20°28' W 087°01'610.2
2019-Jul-05 10:53N 20°22' W 087°05'  
Track history (hours):
 
Tides and Currents Weather Stations Pressure Air Temp Water Temp Dewpoint Dewpoint Depression Visibility Wind Speed Wind Dir Waves Ship Positions

Norwegian Breakaway

Last reported at 2019-Jul-14 22:17 UTC. Time now 2019-Jul-17 00:49 UTC.
Position N 25°32' W 079°50'.

Length 325 m; draft 8.6 m.

Type: Passenger vessel. MMSI: 311050800.

Date/timePositionNaut miles runAvg speedWind from/ knotsBaromVisibWave heightAir tempDewpointWater temp
2019-Jul-14 22:17N 25°32' W 079°50'516.9
2019-Jul-14 22:00N 25°36' W 079°53'817.0
2019-Jul-14 21:30N 25°42' W 079°59'713.3
2019-Jul-14 21:01N 25°46' W 080°05'5 9.1
2019-Jul-14 20:30N 25°47' W 080°10'0 0.7
2019-Jul-14 19:58N 25°47' W 080°10'0 0.0
2019-Jul-14 19:28N 25°47' W 080°10'0 0.0
2019-Jul-14 18:57N 25°47' W 080°10'0 0.0
2019-Jul-14 18:25N 25°47' W 080°10'0 0.0
2019-Jul-14 17:58N 25°47' W 080°10'0 0.0
2019-Jul-14 17:25N 25°47' W 080°10'0 0.0
2019-Jul-14 16:58N 25°47' W 080°10'0 0.0
2019-Jul-14 16:22N 25°47' W 080°10'0 0.0
2019-Jul-14 15:58N 25°47' W 080°10'0 0.0
2019-Jul-14 15:28N 25°47' W 080°10'0 0.0
2019-Jul-14 14:22N 25°47' W 080°10'0 0.0
2019-Jul-14 13:55N 25°47' W 080°10'0 0.0
2019-Jul-14 13:28N 25°47' W 080°10'0 0.0
2019-Jul-14 12:58N 25°47' W 080°10'0 0.0
2019-Jul-14 12:25N 25°47' W 080°10'0 0.0
2019-Jul-14 11:58N 25°47' W 080°10'0 0.0
2019-Jul-14 11:28N 25°47' W 080°10'0 0.0
2019-Jul-14 10:58N 25°47' W 080°10'0 0.1
2019-Jul-14 10:30N 25°47' W 080°10'0 0.2
2019-Jul-14 10:00N 25°47' W 080°11'4 8.6
2019-Jul-14 09:30N 25°46' W 080°06'5 9.5
2019-Jul-14 09:00N 25°47' W 080°01'4 8.7
2019-Jul-14 08:30N 25°45' W 079°57'510.6
2019-Jul-14 08:00N 25°40' W 079°56'611.6
2019-Jul-14 07:30N 25°34' W 079°56'612.1
2019-Jul-14 07:00N 25°28' W 079°56'612.7
2019-Jul-14 06:30N 25°22' W 079°57'713.2
2019-Jul-14 06:00N 25°16' W 079°59'47815.3
2019-Jul-12 22:50N 20°32' W 086°58'2 5.4
2019-Jul-12 22:31N 20°31' W 086°57'0 0.0
2019-Jul-12 22:00N 20°31' W 086°57'0 0.0
2019-Jul-12 21:31N 20°31' W 086°57'0 0.0
2019-Jul-12 21:00N 20°31' W 086°57'0 0.0
2019-Jul-12 13:34N 20°31' W 086°57'0 0.0
2019-Jul-12 12:35N 20°31' W 086°57'5 5.1
2019-Jul-12 11:34N 20°28' W 087°02'  
2019-Jul-07 22:19N 25°36' W 079°54'517.8
2019-Jul-07 22:01N 25°40' W 079°58'815.7
2019-Jul-07 21:31N 25°46' W 080°04'5 9.9
2019-Jul-07 21:01N 25°47' W 080°10'1 1.0
2019-Jul-07 20:28N 25°47' W 080°10'0 0.0
2019-Jul-07 19:58N 25°47' W 080°10'0 0.0
2019-Jul-07 19:28N 25°47' W 080°10'0 0.0
2019-Jul-07 18:58N 25°47' W 080°10'0 0.0
2019-Jul-07 18:28N 25°47' W 080°10'0 0.0
2019-Jul-07 17:58N 25°47' W 080°10'0 0.0
2019-Jul-07 17:28N 25°47' W 080°10'0 0.0
2019-Jul-07 16:58N 25°47' W 080°10'0 0.0
2019-Jul-07 16:28N 25°47' W 080°10'0 0.0
2019-Jul-07 15:58N 25°47' W 080°10'0 0.0
2019-Jul-07 15:28N 25°47' W 080°10'0 0.0
2019-Jul-07 14:55N 25°47' W 080°10'0 0.0
2019-Jul-07 14:28N 25°47' W 080°10'0 0.0
2019-Jul-07 13:58N 25°47' W 080°10'0 0.0
2019-Jul-07 13:25N 25°47' W 080°10'0 0.0
2019-Jul-07 12:58N 25°47' W 080°10'0 0.0
2019-Jul-07 12:28N 25°47' W 080°10'0 0.0
2019-Jul-07 11:58N 25°47' W 080°10'0 0.0
2019-Jul-07 11:28N 25°47' W 080°10'0 0.0
2019-Jul-07 10:58N 25°47' W 080°10'0 0.0
2019-Jul-07 10:30N 25°47' W 080°10'0 0.8
2019-Jul-07 10:00N 25°47' W 080°11'4 7.3
2019-Jul-07 09:30N 25°45' W 080°07'5 9.9
2019-Jul-07 09:00N 25°47' W 080°02'4 8.7
2019-Jul-07 08:30N 25°45' W 079°57'611.6
2019-Jul-07 08:00N 25°39' W 079°56'612.7
2019-Jul-07 07:30N 25°33' W 079°56'612.8
2019-Jul-07 07:00N 25°27' W 079°56'612.7
2019-Jul-07 06:30N 25°20' W 079°57'712.7
2019-Jul-07 05:58N 25°14' W 079°60'47515.2
2019-Jul-05 22:36N 20°34' W 086°57'110.7
2019-Jul-05 22:30N 20°33' W 086°57'2 3.6
2019-Jul-05 21:59N 20°31' W 086°57'0 0.0
2019-Jul-05 21:29N 20°31' W 086°57'0 0.0
2019-Jul-05 20:59N 20°31' W 086°57'0 0.0
2019-Jul-05 20:29N 20°31' W 086°57'0 0.0
2019-Jul-05 19:59N 20°31' W 086°57'0 0.0
2019-Jul-05 19:29N 20°31' W 086°57'0 0.0
2019-Jul-05 18:59N 20°31' W 086°57'0 0.0
2019-Jul-05 18:29N 20°31' W 086°57'0 0.0
2019-Jul-05 17:59N 20°31' W 086°57'0 0.0
2019-Jul-05 17:29N 20°31' W 086°57'0 0.0
2019-Jul-05 16:59N 20°31' W 086°57'0 0.0
2019-Jul-05 16:26N 20°31' W 086°57'0 0.0
2019-Jul-05 15:59N 20°31' W 086°57'0 0.0
2019-Jul-05 15:29N 20°31' W 086°57'0 0.0
2019-Jul-05 14:59N 20°31' W 086°57'0 0.0
2019-Jul-05 14:29N 20°31' W 086°57'0 0.0
2019-Jul-05 13:59N 20°31' W 086°57'0 0.0
2019-Jul-05 13:29N 20°31' W 086°57'0 0.0
2019-Jul-05 12:59N 20°31' W 086°57'0 0.0
2019-Jul-05 12:30N 20°31' W 086°57'1 1.5
2019-Jul-05 12:00N 20°30' W 086°58'4 7.8
2019-Jul-05 11:30N 20°28' W 087°01'610.2
2019-Jul-05 10:53N 20°22' W 087°05'  

Dump ship's entire track history